sensor_id;sensor_type;location;lat;lon;timestamp;P1;durP1;ratioP1;P2;durP2;ratioP2
57057;SDS011;55017;52.848;6.748;2022-10-16T00:01:14;109.55;;;105.90;;
57057;SDS011;55017;52.848;6.748;2022-10-16T00:03:41;110.95;;;107.00;;
57057;SDS011;55017;52.848;6.748;2022-10-16T00:06:08;110.15;;;106.05;;
57057;SDS011;55017;52.848;6.748;2022-10-16T00:08:35;107.38;;;103.72;;
57057;SDS011;55017;52.848;6.748;2022-10-16T00:11:01;110.35;;;106.60;;
57057;SDS011;55017;52.848;6.748;2022-10-16T00:13:30;110.38;;;106.30;;
57057;SDS011;55017;52.848;6.748;2022-10-16T00:15:57;108.10;;;104.30;;
57057;SDS011;55017;52.848;6.748;2022-10-16T00:18:24;109.25;;;105.20;;
57057;SDS011;55017;52.848;6.748;2022-10-16T00:20:50;112.38;;;108.57;;
57057;SDS011;55017;52.848;6.748;2022-10-16T00:23:16;109.45;;;105.65;;
57057;SDS011;55017;52.848;6.748;2022-10-16T00:25:41;108.20;;;104.28;;
57057;SDS011;55017;52.848;6.748;2022-10-16T00:28:07;109.53;;;105.47;;
57057;SDS011;55017;52.848;6.748;2022-10-16T00:30:33;109.47;;;105.45;;
57057;SDS011;55017;52.848;6.748;2022-10-16T00:32:58;109.35;;;105.65;;
57057;SDS011;55017;52.848;6.748;2022-10-16T00:35:24;111.30;;;107.50;;
57057;SDS011;55017;52.848;6.748;2022-10-16T00:37:49;111.45;;;107.57;;
57057;SDS011;55017;52.848;6.748;2022-10-16T00:40:15;108.75;;;104.93;;
57057;SDS011;55017;52.848;6.748;2022-10-16T00:42:41;112.18;;;107.97;;
57057;SDS011;55017;52.848;6.748;2022-10-16T00:45:07;109.40;;;105.60;;
57057;SDS011;55017;52.848;6.748;2022-10-16T00:47:38;110.10;;;106.40;;
57057;SDS011;55017;52.848;6.748;2022-10-16T00:50:21;109.30;;;105.60;;
57057;SDS011;55017;52.848;6.748;2022-10-16T00:52:54;110.72;;;106.68;;
57057;SDS011;55017;52.848;6.748;2022-10-16T00:55:20;109.63;;;105.40;;
57057;SDS011;55017;52.848;6.748;2022-10-16T00:57:47;108.72;;;105.13;;
57057;SDS011;55017;52.848;6.748;2022-10-16T01:00:15;108.78;;;104.90;;
57057;SDS011;55017;52.848;6.748;2022-10-16T01:02:51;109.20;;;105.55;;
57057;SDS011;55017;52.848;6.748;2022-10-16T01:05:27;110.03;;;106.32;;
57057;SDS011;55017;52.848;6.748;2022-10-16T01:08:05;110.45;;;106.72;;
57057;SDS011;55017;52.848;6.748;2022-10-16T01:10:40;114.82;;;110.75;;
57057;SDS011;55017;52.848;6.748;2022-10-16T01:13:21;111.50;;;107.53;;
57057;SDS011;55017;52.848;6.748;2022-10-16T01:15:59;113.88;;;110.07;;
57057;SDS011;55017;52.848;6.748;2022-10-16T01:19:08;108.40;;;104.72;;
57057;SDS011;55017;52.848;6.748;2022-10-16T01:21:43;111.38;;;107.47;;
57057;SDS011;55017;52.848;6.748;2022-10-16T01:27:10;113.97;;;109.88;;
57057;SDS011;55017;52.848;6.748;2022-10-16T01:32:33;112.30;;;108.22;;
57057;SDS011;55017;52.848;6.748;2022-10-16T01:35:09;110.90;;;106.93;;
57057;SDS011;55017;52.848;6.748;2022-10-16T01:37:46;113.78;;;109.85;;
57057;SDS011;55017;52.848;6.748;2022-10-16T01:40:18;116.53;;;112.50;;
57057;SDS011;55017;52.848;6.748;2022-10-16T01:42:46;112.75;;;108.78;;
57057;SDS011;55017;52.848;6.748;2022-10-16T01:45:18;111.78;;;107.93;;
57057;SDS011;55017;52.848;6.748;2022-10-16T01:47:46;112.57;;;108.72;;
57057;SDS011;55017;52.848;6.748;2022-10-16T01:50:15;110.45;;;106.80;;
57057;SDS011;55017;52.848;6.748;2022-10-16T01:52:43;112.03;;;108.10;;
57057;SDS011;55017;52.848;6.748;2022-10-16T01:55:16;111.68;;;107.57;;
57057;SDS011;55017;52.848;6.748;2022-10-16T01:57:47;110.28;;;106.32;;
57057;SDS011;55017;52.848;6.748;2022-10-16T02:02:43;111.10;;;107.25;;
57057;SDS011;55017;52.848;6.748;2022-10-16T02:05:28;111.63;;;107.75;;
57057;SDS011;55017;52.848;6.748;2022-10-16T02:07:57;112.13;;;108.53;;
57057;SDS011;55017;52.848;6.748;2022-10-16T02:10:23;112.03;;;108.25;;
57057;SDS011;55017;52.848;6.748;2022-10-16T02:13:03;110.57;;;106.72;;
57057;SDS011;55017;52.848;6.748;2022-10-16T02:15:50;112.97;;;109.18;;
57057;SDS011;55017;52.848;6.748;2022-10-16T02:18:16;116.53;;;112.30;;
57057;SDS011;55017;52.848;6.748;2022-10-16T02:23:19;113.35;;;109.45;;
57057;SDS011;55017;52.848;6.748;2022-10-16T02:25:54;113.00;;;109.15;;
57057;SDS011;55017;52.848;6.748;2022-10-16T02:28:24;111.10;;;107.18;;
57057;SDS011;55017;52.848;6.748;2022-10-16T02:33:26;108.97;;;105.22;;
57057;SDS011;55017;52.848;6.748;2022-10-16T02:35:54;111.07;;;106.97;;
57057;SDS011;55017;52.848;6.748;2022-10-16T02:38:21;109.50;;;105.88;;
57057;SDS011;55017;52.848;6.748;2022-10-16T02:40:48;109.40;;;105.70;;
57057;SDS011;55017;52.848;6.748;2022-10-16T02:43:14;110.18;;;106.28;;
57057;SDS011;55017;52.848;6.748;2022-10-16T02:45:40;113.53;;;109.70;;
57057;SDS011;55017;52.848;6.748;2022-10-16T02:48:06;112.93;;;108.97;;
57057;SDS011;55017;52.848;6.748;2022-10-16T02:50:32;114.38;;;110.28;;
57057;SDS011;55017;52.848;6.748;2022-10-16T02:52:57;111.25;;;107.28;;
57057;SDS011;55017;52.848;6.748;2022-10-16T02:55:23;111.32;;;107.50;;
57057;SDS011;55017;52.848;6.748;2022-10-16T02:57:49;110.22;;;106.40;;
57057;SDS011;55017;52.848;6.748;2022-10-16T03:00:15;109.13;;;105.35;;
57057;SDS011;55017;52.848;6.748;2022-10-16T03:02:41;109.03;;;105.20;;
57057;SDS011;55017;52.848;6.748;2022-10-16T03:05:08;107.80;;;104.00;;
57057;SDS011;55017;52.848;6.748;2022-10-16T03:07:34;111.72;;;107.82;;
57057;SDS011;55017;52.848;6.748;2022-10-16T03:10:00;113.97;;;110.35;;
57057;SDS011;55017;52.848;6.748;2022-10-16T03:12:26;110.85;;;107.00;;
57057;SDS011;55017;52.848;6.748;2022-10-16T03:14:53;111.18;;;107.57;;
57057;SDS011;55017;52.848;6.748;2022-10-16T03:17:19;110.72;;;106.53;;
57057;SDS011;55017;52.848;6.748;2022-10-16T03:19:44;108.95;;;105.25;;
57057;SDS011;55017;52.848;6.748;2022-10-16T03:22:10;111.22;;;107.47;;
57057;SDS011;55017;52.848;6.748;2022-10-16T03:24:35;110.30;;;106.60;;
57057;SDS011;55017;52.848;6.748;2022-10-16T03:27:01;110.35;;;106.55;;
57057;SDS011;55017;52.848;6.748;2022-10-16T03:29:27;112.97;;;109.18;;
57057;SDS011;55017;52.848;6.748;2022-10-16T03:31:54;111.05;;;107.05;;
57057;SDS011;55017;52.848;6.748;2022-10-16T03:34:20;108.53;;;104.85;;
57057;SDS011;55017;52.848;6.748;2022-10-16T03:36:45;108.90;;;105.20;;
57057;SDS011;55017;52.848;6.748;2022-10-16T03:39:11;111.18;;;107.43;;
57057;SDS011;55017;52.848;6.748;2022-10-16T03:41:37;108.47;;;104.80;;
57057;SDS011;55017;52.848;6.748;2022-10-16T03:44:02;110.57;;;106.78;;
57057;SDS011;55017;52.848;6.748;2022-10-16T03:46:28;110.60;;;106.95;;
57057;SDS011;55017;52.848;6.748;2022-10-16T03:48:54;111.97;;;108.30;;
57057;SDS011;55017;52.848;6.748;2022-10-16T03:51:20;111.75;;;108.05;;
57057;SDS011;55017;52.848;6.748;2022-10-16T03:53:46;108.78;;;105.18;;
57057;SDS011;55017;52.848;6.748;2022-10-16T03:56:11;108.55;;;104.85;;
57057;SDS011;55017;52.848;6.748;2022-10-16T03:58:37;109.90;;;105.90;;
57057;SDS011;55017;52.848;6.748;2022-10-16T04:01:02;107.97;;;104.40;;
57057;SDS011;55017;52.848;6.748;2022-10-16T04:03:28;109.90;;;106.10;;
57057;SDS011;55017;52.848;6.748;2022-10-16T04:05:54;109.05;;;105.45;;
57057;SDS011;55017;52.848;6.748;2022-10-16T04:08:20;110.50;;;107.00;;
57057;SDS011;55017;52.848;6.748;2022-10-16T04:10:45;111.63;;;107.75;;
57057;SDS011;55017;52.848;6.748;2022-10-16T04:13:11;108.45;;;104.88;;
57057;SDS011;55017;52.848;6.748;2022-10-16T04:15:37;107.75;;;104.13;;
57057;SDS011;55017;52.848;6.748;2022-10-16T04:18:03;109.05;;;105.25;;
57057;SDS011;55017;52.848;6.748;2022-10-16T04:20:29;108.05;;;104.30;;
57057;SDS011;55017;52.848;6.748;2022-10-16T04:22:55;108.55;;;104.80;;
57057;SDS011;55017;52.848;6.748;2022-10-16T04:25:21;109.65;;;106.13;;
57057;SDS011;55017;52.848;6.748;2022-10-16T04:27:47;110.70;;;106.78;;
57057;SDS011;55017;52.848;6.748;2022-10-16T04:30:12;109.53;;;105.80;;
57057;SDS011;55017;52.848;6.748;2022-10-16T04:32:39;110.88;;;107.18;;
57057;SDS011;55017;52.848;6.748;2022-10-16T04:35:04;112.07;;;108.07;;
57057;SDS011;55017;52.848;6.748;2022-10-16T04:37:31;110.57;;;106.65;;
57057;SDS011;55017;52.848;6.748;2022-10-16T04:39:57;110.75;;;106.82;;
57057;SDS011;55017;52.848;6.748;2022-10-16T04:42:22;108.30;;;104.70;;
57057;SDS011;55017;52.848;6.748;2022-10-16T04:44:48;109.65;;;105.75;;
57057;SDS011;55017;52.848;6.748;2022-10-16T04:47:14;110.20;;;106.10;;
57057;SDS011;55017;52.848;6.748;2022-10-16T04:49:40;109.95;;;106.05;;
57057;SDS011;55017;52.848;6.748;2022-10-16T04:52:06;109.50;;;105.70;;
57057;SDS011;55017;52.848;6.748;2022-10-16T04:54:31;110.60;;;106.57;;
57057;SDS011;55017;52.848;6.748;2022-10-16T04:56:57;110.95;;;107.15;;
57057;SDS011;55017;52.848;6.748;2022-10-16T04:59:23;110.25;;;106.55;;
57057;SDS011;55017;52.848;6.748;2022-10-16T05:01:48;111.22;;;107.20;;
57057;SDS011;55017;52.848;6.748;2022-10-16T05:04:14;111.18;;;107.38;;
57057;SDS011;55017;52.848;6.748;2022-10-16T05:06:40;113.70;;;109.72;;
57057;SDS011;55017;52.848;6.748;2022-10-16T05:09:07;112.32;;;108.43;;
57057;SDS011;55017;52.848;6.748;2022-10-16T05:11:33;112.25;;;108.35;;
57057;SDS011;55017;52.848;6.748;2022-10-16T05:13:59;113.97;;;110.15;;
57057;SDS011;55017;52.848;6.748;2022-10-16T05:16:25;110.40;;;106.70;;
57057;SDS011;55017;52.848;6.748;2022-10-16T05:18:51;111.35;;;107.72;;
57057;SDS011;55017;52.848;6.748;2022-10-16T05:21:16;111.22;;;107.57;;
57057;SDS011;55017;52.848;6.748;2022-10-16T05:23:42;111.70;;;108.10;;
57057;SDS011;55017;52.848;6.748;2022-10-16T05:26:08;111.43;;;107.72;;
57057;SDS011;55017;52.848;6.748;2022-10-16T05:28:33;112.35;;;108.45;;
57057;SDS011;55017;52.848;6.748;2022-10-16T05:31:03;109.57;;;105.78;;
57057;SDS011;55017;52.848;6.748;2022-10-16T05:33:32;109.85;;;106.15;;
57057;SDS011;55017;52.848;6.748;2022-10-16T05:36:05;110.95;;;107.13;;
57057;SDS011;55017;52.848;6.748;2022-10-16T05:38:33;112.63;;;108.75;;
57057;SDS011;55017;52.848;6.748;2022-10-16T05:40:59;111.03;;;107.22;;
57057;SDS011;55017;52.848;6.748;2022-10-16T05:43:26;113.13;;;109.22;;
57057;SDS011;55017;52.848;6.748;2022-10-16T05:45:56;111.10;;;107.30;;
57057;SDS011;55017;52.848;6.748;2022-10-16T05:48:23;111.97;;;107.93;;
57057;SDS011;55017;52.848;6.748;2022-10-16T05:50:59;114.47;;;110.63;;
57057;SDS011;55017;52.848;6.748;2022-10-16T05:53:26;112.68;;;108.78;;
57057;SDS011;55017;52.848;6.748;2022-10-16T05:55:54;111.50;;;107.75;;
57057;SDS011;55017;52.848;6.748;2022-10-16T05:58:20;111.70;;;107.88;;
57057;SDS011;55017;52.848;6.748;2022-10-16T06:00:56;111.03;;;107.07;;
57057;SDS011;55017;52.848;6.748;2022-10-16T06:03:23;111.90;;;108.00;;
57057;SDS011;55017;52.848;6.748;2022-10-16T06:05:49;113.43;;;109.25;;
57057;SDS011;55017;52.848;6.748;2022-10-16T06:08:15;110.55;;;106.88;;
57057;SDS011;55017;52.848;6.748;2022-10-16T06:10:41;110.97;;;107.07;;
57057;SDS011;55017;52.848;6.748;2022-10-16T06:13:08;114.47;;;110.68;;
57057;SDS011;55017;52.848;6.748;2022-10-16T06:15:34;111.53;;;107.82;;
57057;SDS011;55017;52.848;6.748;2022-10-16T06:18:00;110.30;;;106.55;;
57057;SDS011;55017;52.848;6.748;2022-10-16T06:20:25;111.78;;;108.18;;
57057;SDS011;55017;52.848;6.748;2022-10-16T06:22:51;114.28;;;110.28;;
57057;SDS011;55017;52.848;6.748;2022-10-16T06:25:17;109.82;;;106.00;;
57057;SDS011;55017;52.848;6.748;2022-10-16T06:27:42;111.35;;;107.63;;
57057;SDS011;55017;52.848;6.748;2022-10-16T06:30:08;111.20;;;107.50;;
57057;SDS011;55017;52.848;6.748;2022-10-16T06:32:34;112.50;;;108.65;;
57057;SDS011;55017;52.848;6.748;2022-10-16T06:35:00;110.82;;;107.13;;
57057;SDS011;55017;52.848;6.748;2022-10-16T06:37:26;110.30;;;106.18;;
57057;SDS011;55017;52.848;6.748;2022-10-16T06:39:52;114.22;;;110.43;;
57057;SDS011;55017;52.848;6.748;2022-10-16T06:42:18;113.07;;;109.28;;
57057;SDS011;55017;52.848;6.748;2022-10-16T06:44:43;111.30;;;107.50;;
57057;SDS011;55017;52.848;6.748;2022-10-16T06:47:09;110.85;;;107.25;;
57057;SDS011;55017;52.848;6.748;2022-10-16T06:49:35;109.70;;;105.97;;
57057;SDS011;55017;52.848;6.748;2022-10-16T06:52:01;110.35;;;106.35;;
57057;SDS011;55017;52.848;6.748;2022-10-16T06:54:27;110.93;;;107.22;;
57057;SDS011;55017;52.848;6.748;2022-10-16T06:56:54;112.10;;;108.20;;
57057;SDS011;55017;52.848;6.748;2022-10-16T06:59:20;109.88;;;106.25;;
57057;SDS011;55017;52.848;6.748;2022-10-16T07:01:46;114.05;;;110.20;;
57057;SDS011;55017;52.848;6.748;2022-10-16T07:04:12;111.55;;;107.65;;
57057;SDS011;55017;52.848;6.748;2022-10-16T07:06:37;110.88;;;106.88;;
57057;SDS011;55017;52.848;6.748;2022-10-16T07:09:04;114.15;;;110.35;;
57057;SDS011;55017;52.848;6.748;2022-10-16T07:11:32;112.13;;;108.35;;
57057;SDS011;55017;52.848;6.748;2022-10-16T07:13:58;113.72;;;110.00;;
57057;SDS011;55017;52.848;6.748;2022-10-16T07:16:25;112.80;;;109.00;;
57057;SDS011;55017;52.848;6.748;2022-10-16T07:18:53;113.57;;;109.83;;
57057;SDS011;55017;52.848;6.748;2022-10-16T07:21:24;112.35;;;108.55;;
57057;SDS011;55017;52.848;6.748;2022-10-16T07:23:51;113.50;;;109.70;;
57057;SDS011;55017;52.848;6.748;2022-10-16T07:26:18;113.45;;;109.65;;
57057;SDS011;55017;52.848;6.748;2022-10-16T07:28:44;109.50;;;105.90;;
57057;SDS011;55017;52.848;6.748;2022-10-16T07:31:11;113.38;;;109.45;;
57057;SDS011;55017;52.848;6.748;2022-10-16T07:33:39;111.50;;;107.70;;
57057;SDS011;55017;52.848;6.748;2022-10-16T07:36:06;112.85;;;109.05;;
57057;SDS011;55017;52.848;6.748;2022-10-16T07:38:32;112.32;;;108.30;;
57057;SDS011;55017;52.848;6.748;2022-10-16T07:40:59;111.60;;;107.90;;
57057;SDS011;55017;52.848;6.748;2022-10-16T07:43:26;110.97;;;106.95;;
57057;SDS011;55017;52.848;6.748;2022-10-16T07:45:52;110.75;;;107.05;;
57057;SDS011;55017;52.848;6.748;2022-10-16T07:48:18;113.60;;;109.80;;
57057;SDS011;55017;52.848;6.748;2022-10-16T07:50:44;109.40;;;105.80;;
57057;SDS011;55017;52.848;6.748;2022-10-16T07:53:10;111.82;;;107.95;;
57057;SDS011;55017;52.848;6.748;2022-10-16T07:55:36;111.25;;;107.65;;
57057;SDS011;55017;52.848;6.748;2022-10-16T07:58:02;111.10;;;107.38;;
57057;SDS011;55017;52.848;6.748;2022-10-16T08:00:27;114.90;;;110.88;;
57057;SDS011;55017;52.848;6.748;2022-10-16T08:02:53;109.80;;;106.05;;
57057;SDS011;55017;52.848;6.748;2022-10-16T08:05:19;113.60;;;109.78;;
57057;SDS011;55017;52.848;6.748;2022-10-16T08:07:48;111.88;;;108.18;;
57057;SDS011;55017;52.848;6.748;2022-10-16T08:10:15;109.40;;;105.88;;
57057;SDS011;55017;52.848;6.748;2022-10-16T08:12:42;110.22;;;106.63;;
57057;SDS011;55017;52.848;6.748;2022-10-16T08:15:08;108.28;;;104.78;;
57057;SDS011;55017;52.848;6.748;2022-10-16T08:17:34;109.18;;;105.47;;
57057;SDS011;55017;52.848;6.748;2022-10-16T08:20:00;109.93;;;106.28;;
57057;SDS011;55017;52.848;6.748;2022-10-16T08:22:26;110.85;;;106.90;;
57057;SDS011;55017;52.848;6.748;2022-10-16T08:24:52;109.32;;;105.78;;
57057;SDS011;55017;52.848;6.748;2022-10-16T08:27:18;108.82;;;105.10;;
57057;SDS011;55017;52.848;6.748;2022-10-16T08:29:43;108.88;;;105.28;;
57057;SDS011;55017;52.848;6.748;2022-10-16T08:32:09;107.13;;;103.55;;
57057;SDS011;55017;52.848;6.748;2022-10-16T08:34:34;109.50;;;105.97;;
57057;SDS011;55017;52.848;6.748;2022-10-16T08:37:00;106.50;;;103.10;;
57057;SDS011;55017;52.848;6.748;2022-10-16T08:39:25;110.45;;;106.75;;
57057;SDS011;55017;52.848;6.748;2022-10-16T08:41:56;108.32;;;104.75;;
57057;SDS011;55017;52.848;6.748;2022-10-16T08:44:37;106.07;;;102.65;;
57057;SDS011;55017;52.848;6.748;2022-10-16T08:50:23;107.88;;;104.40;;
57057;SDS011;55017;52.848;6.748;2022-10-16T08:52:52;107.97;;;104.32;;
57057;SDS011;55017;52.848;6.748;2022-10-16T08:58:18;105.63;;;102.03;;
57057;SDS011;55017;52.848;6.748;2022-10-16T09:00:47;109.93;;;106.22;;
57057;SDS011;55017;52.848;6.748;2022-10-16T09:03:43;105.65;;;102.15;;
57057;SDS011;55017;52.848;6.748;2022-10-16T09:23:30;106.47;;;102.75;;
57057;SDS011;55017;52.848;6.748;2022-10-16T09:26:00;102.22;;;98.82;;
57057;SDS011;55017;52.848;6.748;2022-10-16T09:28:27;102.47;;;98.88;;
57057;SDS011;55017;52.848;6.748;2022-10-16T09:30:53;101.70;;;98.30;;
57057;SDS011;55017;52.848;6.748;2022-10-16T09:33:20;103.88;;;100.38;;
57057;SDS011;55017;52.848;6.748;2022-10-16T09:35:50;99.50;;;95.75;;
57057;SDS011;55017;52.848;6.748;2022-10-16T09:40:48;104.60;;;101.00;;
57057;SDS011;55017;52.848;6.748;2022-10-16T09:46:02;102.18;;;98.60;;
57057;SDS011;55017;52.848;6.748;2022-10-16T09:48:42;99.35;;;95.85;;
57057;SDS011;55017;52.848;6.748;2022-10-16T09:53:48;98.90;;;95.30;;
57057;SDS011;55017;52.848;6.748;2022-10-16T09:56:23;100.82;;;97.20;;
57057;SDS011;55017;52.848;6.748;2022-10-16T09:58:58;99.18;;;95.75;;
57057;SDS011;55017;52.848;6.748;2022-10-16T10:01:35;99.68;;;96.15;;
57057;SDS011;55017;52.848;6.748;2022-10-16T10:04:03;99.97;;;96.47;;
57057;SDS011;55017;52.848;6.748;2022-10-16T10:06:34;98.95;;;95.47;;
57057;SDS011;55017;52.848;6.748;2022-10-16T10:09:27;100.38;;;96.50;;
57057;SDS011;55017;52.848;6.748;2022-10-16T10:11:58;100.03;;;96.32;;
57057;SDS011;55017;52.848;6.748;2022-10-16T10:17:08;100.65;;;97.03;;
57057;SDS011;55017;52.848;6.748;2022-10-16T10:22:44;98.75;;;94.95;;
57057;SDS011;55017;52.848;6.748;2022-10-16T10:30:49;99.63;;;95.93;;
57057;SDS011;55017;52.848;6.748;2022-10-16T10:36:39;98.68;;;95.28;;
57057;SDS011;55017;52.848;6.748;2022-10-16T10:49:52;97.82;;;94.30;;
57057;SDS011;55017;52.848;6.748;2022-10-16T10:52:26;98.45;;;94.72;;
57057;SDS011;55017;52.848;6.748;2022-10-16T11:00:35;98.72;;;95.03;;
57057;SDS011;55017;52.848;6.748;2022-10-16T11:06:11;97.30;;;93.53;;
57057;SDS011;55017;52.848;6.748;2022-10-16T11:08:47;97.10;;;93.50;;
57057;SDS011;55017;52.848;6.748;2022-10-16T11:11:29;97.82;;;93.95;;
57057;SDS011;55017;52.848;6.748;2022-10-16T11:17:02;96.47;;;92.40;;
57057;SDS011;55017;52.848;6.748;2022-10-16T11:22:09;95.88;;;92.28;;
57057;SDS011;55017;52.848;6.748;2022-10-16T11:24:51;98.40;;;94.45;;
57057;SDS011;55017;52.848;6.748;2022-10-16T11:27:33;96.78;;;93.07;;
57057;SDS011;55017;52.848;6.748;2022-10-16T11:30:06;96.85;;;93.28;;
57057;SDS011;55017;52.848;6.748;2022-10-16T11:35:53;99.97;;;96.28;;
57057;SDS011;55017;52.848;6.748;2022-10-16T11:41:39;95.93;;;92.40;;
57057;SDS011;55017;52.848;6.748;2022-10-16T11:44:16;100.13;;;96.28;;
57057;SDS011;55017;52.848;6.748;2022-10-16T11:50:00;97.32;;;93.80;;
57057;SDS011;55017;52.848;6.748;2022-10-16T11:55:15;96.97;;;93.40;;
57057;SDS011;55017;52.848;6.748;2022-10-16T11:57:54;95.57;;;91.80;;
57057;SDS011;55017;52.848;6.748;2022-10-16T12:00:28;96.57;;;93.13;;
57057;SDS011;55017;52.848;6.748;2022-10-16T12:05:59;93.95;;;90.40;;
57057;SDS011;55017;52.848;6.748;2022-10-16T12:08:48;94.22;;;90.38;;
57057;SDS011;55017;52.848;6.748;2022-10-16T12:16:51;89.78;;;86.47;;
57057;SDS011;55017;52.848;6.748;2022-10-16T12:19:21;91.20;;;87.90;;
57057;SDS011;55017;52.848;6.748;2022-10-16T12:21:48;90.25;;;86.85;;
57057;SDS011;55017;52.848;6.748;2022-10-16T12:24:26;90.55;;;87.32;;
57057;SDS011;55017;52.848;6.748;2022-10-16T12:27:04;91.20;;;87.80;;
57057;SDS011;55017;52.848;6.748;2022-10-16T12:29:41;90.65;;;87.25;;
57057;SDS011;55017;52.848;6.748;2022-10-16T12:32:22;93.28;;;89.35;;
57057;SDS011;55017;52.848;6.748;2022-10-16T12:35:00;95.22;;;91.68;;
57057;SDS011;55017;52.848;6.748;2022-10-16T12:37:29;94.22;;;90.15;;
57057;SDS011;55017;52.848;6.748;2022-10-16T12:39:58;95.30;;;91.65;;
57057;SDS011;55017;52.848;6.748;2022-10-16T12:42:36;93.43;;;89.72;;
57057;SDS011;55017;52.848;6.748;2022-10-16T12:45:12;92.22;;;88.68;;
57057;SDS011;55017;52.848;6.748;2022-10-16T12:47:51;92.13;;;88.70;;
57057;SDS011;55017;52.848;6.748;2022-10-16T12:50:32;93.47;;;90.07;;
57057;SDS011;55017;52.848;6.748;2022-10-16T12:53:04;94.93;;;91.00;;
57057;SDS011;55017;52.848;6.748;2022-10-16T13:01:21;91.97;;;88.15;;
57057;SDS011;55017;52.848;6.748;2022-10-16T13:11:41;95.75;;;92.35;;
57057;SDS011;55017;52.848;6.748;2022-10-16T13:14:41;95.60;;;92.00;;
57057;SDS011;55017;52.848;6.748;2022-10-16T13:22:47;95.85;;;92.03;;
57057;SDS011;55017;52.848;6.748;2022-10-16T13:28:12;94.35;;;91.00;;
57057;SDS011;55017;52.848;6.748;2022-10-16T13:30:40;95.60;;;92.13;;
57057;SDS011;55017;52.848;6.748;2022-10-16T13:35:48;95.35;;;91.50;;
57057;SDS011;55017;52.848;6.748;2022-10-16T13:38:19;97.03;;;93.30;;
57057;SDS011;55017;52.848;6.748;2022-10-16T13:40:56;96.72;;;93.30;;
57057;SDS011;55017;52.848;6.748;2022-10-16T13:46:01;96.53;;;92.70;;
57057;SDS011;55017;52.848;6.748;2022-10-16T13:48:29;97.10;;;93.43;;
57057;SDS011;55017;52.848;6.748;2022-10-16T13:51:00;95.10;;;91.30;;
57057;SDS011;55017;52.848;6.748;2022-10-16T13:53:27;98.28;;;94.57;;
57057;SDS011;55017;52.848;6.748;2022-10-16T13:55:54;95.30;;;91.72;;
57057;SDS011;55017;52.848;6.748;2022-10-16T13:58:21;97.13;;;93.20;;
57057;SDS011;55017;52.848;6.748;2022-10-16T14:00:57;95.28;;;91.85;;
57057;SDS011;55017;52.848;6.748;2022-10-16T14:03:25;97.10;;;93.38;;
57057;SDS011;55017;52.848;6.748;2022-10-16T14:05:53;99.63;;;95.97;;
57057;SDS011;55017;52.848;6.748;2022-10-16T14:08:31;96.78;;;92.90;;
57057;SDS011;55017;52.848;6.748;2022-10-16T14:10:57;98.78;;;94.93;;
57057;SDS011;55017;52.848;6.748;2022-10-16T14:13:46;95.88;;;92.18;;
57057;SDS011;55017;52.848;6.748;2022-10-16T14:16:19;96.38;;;92.85;;
57057;SDS011;55017;52.848;6.748;2022-10-16T14:21:22;103.05;;;98.97;;
57057;SDS011;55017;52.848;6.748;2022-10-16T14:23:49;98.45;;;94.68;;
57057;SDS011;55017;52.848;6.748;2022-10-16T14:26:16;98.78;;;95.05;;
57057;SDS011;55017;52.848;6.748;2022-10-16T14:28:45;96.53;;;93.03;;
57057;SDS011;55017;52.848;6.748;2022-10-16T14:33:51;96.18;;;92.45;;
57057;SDS011;55017;52.848;6.748;2022-10-16T14:36:17;96.72;;;92.50;;
57057;SDS011;55017;52.848;6.748;2022-10-16T14:38:49;96.78;;;92.95;;
57057;SDS011;55017;52.848;6.748;2022-10-16T14:41:26;97.80;;;94.05;;
57057;SDS011;55017;52.848;6.748;2022-10-16T14:43:54;100.55;;;96.78;;
57057;SDS011;55017;52.848;6.748;2022-10-16T14:46:34;97.75;;;93.95;;
57057;SDS011;55017;52.848;6.748;2022-10-16T14:51:33;99.05;;;95.47;;
57057;SDS011;55017;52.848;6.748;2022-10-16T14:54:00;99.30;;;95.60;;
57057;SDS011;55017;52.848;6.748;2022-10-16T14:56:30;99.95;;;95.82;;
57057;SDS011;55017;52.848;6.748;2022-10-16T14:59:18;98.78;;;95.00;;
57057;SDS011;55017;52.848;6.748;2022-10-16T15:01:52;98.20;;;94.28;;
57057;SDS011;55017;52.848;6.748;2022-10-16T15:04:18;98.32;;;94.80;;
57057;SDS011;55017;52.848;6.748;2022-10-16T15:06:43;98.25;;;94.50;;
57057;SDS011;55017;52.848;6.748;2022-10-16T15:09:09;98.75;;;94.68;;
57057;SDS011;55017;52.848;6.748;2022-10-16T15:11:35;99.70;;;95.55;;
57057;SDS011;55017;52.848;6.748;2022-10-16T15:14:01;100.35;;;96.43;;
57057;SDS011;55017;52.848;6.748;2022-10-16T15:16:28;100.68;;;96.85;;
57057;SDS011;55017;52.848;6.748;2022-10-16T15:18:54;99.50;;;95.65;;
57057;SDS011;55017;52.848;6.748;2022-10-16T15:23:53;99.43;;;95.70;;
57057;SDS011;55017;52.848;6.748;2022-10-16T15:26:19;98.97;;;95.32;;
57057;SDS011;55017;52.848;6.748;2022-10-16T15:28:44;98.18;;;94.35;;
57057;SDS011;55017;52.848;6.748;2022-10-16T15:31:10;100.03;;;96.35;;
57057;SDS011;55017;52.848;6.748;2022-10-16T15:33:36;101.05;;;96.88;;
57057;SDS011;55017;52.848;6.748;2022-10-16T15:36:02;99.45;;;95.80;;
57057;SDS011;55017;52.848;6.748;2022-10-16T15:38:28;101.50;;;97.88;;
57057;SDS011;55017;52.848;6.748;2022-10-16T15:40:55;99.45;;;95.72;;
57057;SDS011;55017;52.848;6.748;2022-10-16T15:43:20;98.30;;;94.40;;
57057;SDS011;55017;52.848;6.748;2022-10-16T15:46:09;100.97;;;97.10;;
57057;SDS011;55017;52.848;6.748;2022-10-16T15:48:34;99.30;;;95.80;;
57057;SDS011;55017;52.848;6.748;2022-10-16T15:51:00;101.80;;;97.90;;
57057;SDS011;55017;52.848;6.748;2022-10-16T15:53:31;101.75;;;97.80;;
57057;SDS011;55017;52.848;6.748;2022-10-16T15:55:56;100.35;;;96.45;;
57057;SDS011;55017;52.848;6.748;2022-10-16T15:58:22;102.30;;;98.53;;
57057;SDS011;55017;52.848;6.748;2022-10-16T16:00:57;99.07;;;95.40;;
57057;SDS011;55017;52.848;6.748;2022-10-16T16:03:26;103.45;;;99.70;;
57057;SDS011;55017;52.848;6.748;2022-10-16T16:05:52;101.40;;;97.60;;
57057;SDS011;55017;52.848;6.748;2022-10-16T16:08:17;101.47;;;97.78;;
57057;SDS011;55017;52.848;6.748;2022-10-16T16:10:43;99.60;;;95.80;;
57057;SDS011;55017;52.848;6.748;2022-10-16T16:13:09;102.38;;;98.07;;
57057;SDS011;55017;52.848;6.748;2022-10-16T16:15:36;101.68;;;97.18;;
57057;SDS011;55017;52.848;6.748;2022-10-16T16:18:04;100.60;;;96.65;;
57057;SDS011;55017;52.848;6.748;2022-10-16T16:20:30;100.38;;;96.45;;
57057;SDS011;55017;52.848;6.748;2022-10-16T16:22:57;99.30;;;95.43;;
57057;SDS011;55017;52.848;6.748;2022-10-16T16:25:22;99.93;;;96.13;;
57057;SDS011;55017;52.848;6.748;2022-10-16T16:27:48;100.85;;;97.15;;
57057;SDS011;55017;52.848;6.748;2022-10-16T16:30:14;102.20;;;98.53;;
57057;SDS011;55017;52.848;6.748;2022-10-16T16:32:40;103.97;;;99.93;;
57057;SDS011;55017;52.848;6.748;2022-10-16T16:35:05;105.13;;;101.00;;
57057;SDS011;55017;52.848;6.748;2022-10-16T16:37:31;102.32;;;98.53;;